Terminal Aerodrome Forecast
Issued by NWS Omaha/Valley, NE

Home | Current Version | Previous Version | Graphics & Text | Print | Product List | Glossary On
Versions: 1 2 3 4 5 6 7 8 9 10 11 12 13 14 15 16 17 18 19 20 21 22 23 24 25 26 27 28 29 30 31 32 33 34
000
FTUS43 KOAX 172324
TAFOFK
TAF
KOFK 172324Z 1800/1824 23006KT P6SM SKC
     FM180600 17006KT P6SM TSRA BKN040CB
     FM180900 28006KT P6SM VCTS BKN040CB
     FM181200 19006KT P6SM SCT140
     FM181500 28006KT P6SM FEW150=

USA.gov is the U.S. government's official web portal to all federal, state and local government web resources and services.